sensor_id;sensor_type;location;lat;lon;timestamp;temperature;humidity
4962;DHT22;2496;52.468;13.342;2023-07-24T00:02:03;20.00;99.90
4962;DHT22;2496;52.468;13.342;2023-07-24T00:04:31;20.00;99.90
4962;DHT22;2496;52.468;13.342;2023-07-24T00:06:58;20.00;99.90
4962;DHT22;2496;52.468;13.342;2023-07-24T00:09:25;20.00;99.90
4962;DHT22;2496;52.468;13.342;2023-07-24T00:11:53;20.00;99.90
4962;DHT22;2496;52.468;13.342;2023-07-24T00:14:20;20.00;99.90
4962;DHT22;2496;52.468;13.342;2023-07-24T00:16:48;19.90;99.90
4962;DHT22;2496;52.468;13.342;2023-07-24T00:19:15;20.00;99.90
4962;DHT22;2496;52.468;13.342;2023-07-24T00:21:42;19.90;99.90
4962;DHT22;2496;52.468;13.342;2023-07-24T00:24:09;19.90;99.90
4962;DHT22;2496;52.468;13.342;2023-07-24T00:26:36;19.90;99.90
4962;DHT22;2496;52.468;13.342;2023-07-24T00:29:03;19.90;99.90
4962;DHT22;2496;52.468;13.342;2023-07-24T00:31:30;19.90;99.90
4962;DHT22;2496;52.468;13.342;2023-07-24T00:33:58;19.90;99.90
4962;DHT22;2496;52.468;13.342;2023-07-24T00:36:26;20.00;99.90
4962;DHT22;2496;52.468;13.342;2023-07-24T00:38:53;19.90;99.90
4962;DHT22;2496;52.468;13.342;2023-07-24T00:41:20;19.90;99.90
4962;DHT22;2496;52.468;13.342;2023-07-24T00:43:47;19.90;99.90
4962;DHT22;2496;52.468;13.342;2023-07-24T00:46:14;19.90;99.90
4962;DHT22;2496;52.468;13.342;2023-07-24T00:48:41;19.90;99.90
4962;DHT22;2496;52.468;13.342;2023-07-24T00:51:10;19.90;99.90
4962;DHT22;2496;52.468;13.342;2023-07-24T00:53:37;19.90;99.90
4962;DHT22;2496;52.468;13.342;2023-07-24T00:56:04;19.90;99.90
4962;DHT22;2496;52.468;13.342;2023-07-24T00:58:32;19.90;99.90
4962;DHT22;2496;52.468;13.342;2023-07-24T01:00:59;19.90;99.90
4962;DHT22;2496;52.468;13.342;2023-07-24T01:03:31;19.90;99.90
4962;DHT22;2496;52.468;13.342;2023-07-24T01:06:00;19.90;99.90
4962;DHT22;2496;52.468;13.342;2023-07-24T01:08:29;19.90;99.90
4962;DHT22;2496;52.468;13.342;2023-07-24T01:10:58;19.90;99.90
4962;DHT22;2496;52.468;13.342;2023-07-24T01:13:32;19.80;99.90
4962;DHT22;2496;52.468;13.342;2023-07-24T01:16:07;19.80;99.90
4962;DHT22;2496;52.468;13.342;2023-07-24T01:18:37;19.70;99.90
4962;DHT22;2496;52.468;13.342;2023-07-24T01:21:09;19.70;99.90
4962;DHT22;2496;52.468;13.342;2023-07-24T01:23:49;19.70;99.90
4962;DHT22;2496;52.468;13.342;2023-07-24T01:26:23;19.70;99.90
4962;DHT22;2496;52.468;13.342;2023-07-24T01:28:53;19.70;99.90
4962;DHT22;2496;52.468;13.342;2023-07-24T01:31:20;19.70;99.90
4962;DHT22;2496;52.468;13.342;2023-07-24T01:33:48;19.70;99.90
4962;DHT22;2496;52.468;13.342;2023-07-24T01:36:15;19.70;99.90
4962;DHT22;2496;52.468;13.342;2023-07-24T01:38:43;19.70;99.90
4962;DHT22;2496;52.468;13.342;2023-07-24T01:41:11;19.70;99.90
4962;DHT22;2496;52.468;13.342;2023-07-24T01:43:41;19.70;99.90
4962;DHT22;2496;52.468;13.342;2023-07-24T01:46:08;19.70;99.90
4962;DHT22;2496;52.468;13.342;2023-07-24T01:48:35;19.70;99.90
4962;DHT22;2496;52.468;13.342;2023-07-24T01:51:02;19.70;99.90
4962;DHT22;2496;52.468;13.342;2023-07-24T01:53:30;19.70;99.90
4962;DHT22;2496;52.468;13.342;2023-07-24T01:55:58;19.70;99.90
4962;DHT22;2496;52.468;13.342;2023-07-24T01:58:25;19.80;99.90
4962;DHT22;2496;52.468;13.342;2023-07-24T02:00:55;19.80;99.90
4962;DHT22;2496;52.468;13.342;2023-07-24T02:03:22;19.80;99.90
4962;DHT22;2496;52.468;13.342;2023-07-24T02:05:50;19.70;99.90
4962;DHT22;2496;52.468;13.342;2023-07-24T02:08:17;19.80;99.90
4962;DHT22;2496;52.468;13.342;2023-07-24T02:10:47;19.70;99.90
4962;DHT22;2496;52.468;13.342;2023-07-24T02:13:15;19.70;99.90
4962;DHT22;2496;52.468;13.342;2023-07-24T02:15:42;19.70;99.90
4962;DHT22;2496;52.468;13.342;2023-07-24T02:18:11;19.70;99.90
4962;DHT22;2496;52.468;13.342;2023-07-24T02:20:38;19.70;99.90
4962;DHT22;2496;52.468;13.342;2023-07-24T02:23:06;19.80;99.90
4962;DHT22;2496;52.468;13.342;2023-07-24T02:25:35;19.70;99.90
4962;DHT22;2496;52.468;13.342;2023-07-24T02:28:03;19.80;99.90
4962;DHT22;2496;52.468;13.342;2023-07-24T02:30:30;19.70;99.90
4962;DHT22;2496;52.468;13.342;2023-07-24T02:32:57;19.80;99.90
4962;DHT22;2496;52.468;13.342;2023-07-24T02:35:25;19.80;99.90
4962;DHT22;2496;52.468;13.342;2023-07-24T02:37:53;19.80;99.90
4962;DHT22;2496;52.468;13.342;2023-07-24T02:40:20;19.80;99.90
4962;DHT22;2496;52.468;13.342;2023-07-24T02:42:47;19.80;99.90
4962;DHT22;2496;52.468;13.342;2023-07-24T02:45:14;19.80;99.90
4962;DHT22;2496;52.468;13.342;2023-07-24T02:47:41;19.80;99.90
4962;DHT22;2496;52.468;13.342;2023-07-24T02:50:09;19.80;99.90
4962;DHT22;2496;52.468;13.342;2023-07-24T02:52:37;19.80;99.90
4962;DHT22;2496;52.468;13.342;2023-07-24T02:55:05;19.80;99.90
4962;DHT22;2496;52.468;13.342;2023-07-24T02:57:33;19.80;99.90
4962;DHT22;2496;52.468;13.342;2023-07-24T03:00:00;19.80;99.90
4962;DHT22;2496;52.468;13.342;2023-07-24T03:02:27;19.80;99.90
4962;DHT22;2496;52.468;13.342;2023-07-24T03:04:54;19.80;99.90
4962;DHT22;2496;52.468;13.342;2023-07-24T03:07:21;19.90;99.90
4962;DHT22;2496;52.468;13.342;2023-07-24T03:09:50;19.90;99.90
4962;DHT22;2496;52.468;13.342;2023-07-24T03:12:18;19.90;99.90
4962;DHT22;2496;52.468;13.342;2023-07-24T03:14:45;19.90;99.90
4962;DHT22;2496;52.468;13.342;2023-07-24T03:17:13;19.90;99.90
4962;DHT22;2496;52.468;13.342;2023-07-24T03:19:41;19.90;99.90
4962;DHT22;2496;52.468;13.342;2023-07-24T03:22:08;19.90;99.90
4962;DHT22;2496;52.468;13.342;2023-07-24T03:24:35;19.90;99.90
4962;DHT22;2496;52.468;13.342;2023-07-24T03:27:04;19.90;99.90
4962;DHT22;2496;52.468;13.342;2023-07-24T03:29:31;19.90;99.90
4962;DHT22;2496;52.468;13.342;2023-07-24T03:31:58;19.90;99.90
4962;DHT22;2496;52.468;13.342;2023-07-24T03:34:26;19.90;99.90
4962;DHT22;2496;52.468;13.342;2023-07-24T03:36:53;19.90;99.90
4962;DHT22;2496;52.468;13.342;2023-07-24T03:39:20;19.90;99.90
4962;DHT22;2496;52.468;13.342;2023-07-24T03:41:47;19.90;99.90
4962;DHT22;2496;52.468;13.342;2023-07-24T03:44:15;19.90;99.90
4962;DHT22;2496;52.468;13.342;2023-07-24T03:46:43;19.90;99.90
4962;DHT22;2496;52.468;13.342;2023-07-24T03:49:10;19.90;99.90
4962;DHT22;2496;52.468;13.342;2023-07-24T03:51:37;19.90;99.90
4962;DHT22;2496;52.468;13.342;2023-07-24T03:54:04;19.90;99.90
4962;DHT22;2496;52.468;13.342;2023-07-24T03:56:32;19.90;99.90
4962;DHT22;2496;52.468;13.342;2023-07-24T03:59:00;19.90;99.90
4962;DHT22;2496;52.468;13.342;2023-07-24T04:01:28;19.90;99.90
4962;DHT22;2496;52.468;13.342;2023-07-24T04:03:55;19.90;99.90
4962;DHT22;2496;52.468;13.342;2023-07-24T04:06:23;19.90;99.90
4962;DHT22;2496;52.468;13.342;2023-07-24T04:08:50;19.90;99.90
4962;DHT22;2496;52.468;13.342;2023-07-24T04:11:17;19.90;99.90
4962;DHT22;2496;52.468;13.342;2023-07-24T04:13:44;19.90;99.90
4962;DHT22;2496;52.468;13.342;2023-07-24T04:16:12;19.90;99.90
4962;DHT22;2496;52.468;13.342;2023-07-24T04:18:41;19.90;99.90
4962;DHT22;2496;52.468;13.342;2023-07-24T04:21:08;19.90;99.90
4962;DHT22;2496;52.468;13.342;2023-07-24T04:23:34;19.90;99.90
4962;DHT22;2496;52.468;13.342;2023-07-24T04:26:01;19.90;99.90
4962;DHT22;2496;52.468;13.342;2023-07-24T04:28:28;20.00;99.90
4962;DHT22;2496;52.468;13.342;2023-07-24T04:30:59;20.00;99.90
4962;DHT22;2496;52.468;13.342;2023-07-24T04:33:26;20.00;99.90
4962;DHT22;2496;52.468;13.342;2023-07-24T04:35:56;20.10;99.90
4962;DHT22;2496;52.468;13.342;2023-07-24T04:38:23;20.10;99.90
4962;DHT22;2496;52.468;13.342;2023-07-24T04:40:50;20.10;99.90
4962;DHT22;2496;52.468;13.342;2023-07-24T04:43:17;20.10;99.90
4962;DHT22;2496;52.468;13.342;2023-07-24T04:45:45;20.10;99.90
4962;DHT22;2496;52.468;13.342;2023-07-24T04:48:13;20.20;99.90
4962;DHT22;2496;52.468;13.342;2023-07-24T04:50:41;20.30;99.90
4962;DHT22;2496;52.468;13.342;2023-07-24T04:53:10;20.30;99.90
4962;DHT22;2496;52.468;13.342;2023-07-24T04:55:37;20.30;99.90
4962;DHT22;2496;52.468;13.342;2023-07-24T04:58:04;20.40;99.90
4962;DHT22;2496;52.468;13.342;2023-07-24T05:00:31;20.40;99.90
4962;DHT22;2496;52.468;13.342;2023-07-24T05:02:58;20.50;99.90
4962;DHT22;2496;52.468;13.342;2023-07-24T05:05:29;20.50;99.90
4962;DHT22;2496;52.468;13.342;2023-07-24T05:07:57;20.50;99.90
4962;DHT22;2496;52.468;13.342;2023-07-24T05:10:27;20.50;99.90
4962;DHT22;2496;52.468;13.342;2023-07-24T05:12:54;20.60;99.90
4962;DHT22;2496;52.468;13.342;2023-07-24T05:15:22;20.60;99.90
4962;DHT22;2496;52.468;13.342;2023-07-24T05:17:49;20.70;99.90
4962;DHT22;2496;52.468;13.342;2023-07-24T05:20:16;20.80;99.90
4962;DHT22;2496;52.468;13.342;2023-07-24T05:22:44;20.90;99.90
4962;DHT22;2496;52.468;13.342;2023-07-24T05:25:12;21.00;99.90
4962;DHT22;2496;52.468;13.342;2023-07-24T05:27:42;21.10;99.90
4962;DHT22;2496;52.468;13.342;2023-07-24T05:30:11;21.20;99.90
4962;DHT22;2496;52.468;13.342;2023-07-24T05:32:38;21.20;99.90
4962;DHT22;2496;52.468;13.342;2023-07-24T05:35:06;21.20;99.90
4962;DHT22;2496;52.468;13.342;2023-07-24T05:37:33;21.20;99.90
4962;DHT22;2496;52.468;13.342;2023-07-24T05:40:00;21.20;99.90
4962;DHT22;2496;52.468;13.342;2023-07-24T05:42:27;21.40;99.90
4962;DHT22;2496;52.468;13.342;2023-07-24T05:44:56;21.60;99.90
4962;DHT22;2496;52.468;13.342;2023-07-24T05:47:23;21.90;99.90
4962;DHT22;2496;52.468;13.342;2023-07-24T05:49:50;22.10;99.90
4962;DHT22;2496;52.468;13.342;2023-07-24T05:52:17;22.20;99.90
4962;DHT22;2496;52.468;13.342;2023-07-24T05:54:44;22.20;99.90
4962;DHT22;2496;52.468;13.342;2023-07-24T05:57:11;22.30;99.90
4962;DHT22;2496;52.468;13.342;2023-07-24T05:59:38;22.30;99.90
4962;DHT22;2496;52.468;13.342;2023-07-24T06:02:06;22.30;99.90
4962;DHT22;2496;52.468;13.342;2023-07-24T06:04:34;22.20;99.90
4962;DHT22;2496;52.468;13.342;2023-07-24T06:07:01;22.20;99.90
4962;DHT22;2496;52.468;13.342;2023-07-24T06:09:28;22.30;99.90
4962;DHT22;2496;52.468;13.342;2023-07-24T06:11:55;22.40;99.90
4962;DHT22;2496;52.468;13.342;2023-07-24T06:14:22;22.50;99.90
4962;DHT22;2496;52.468;13.342;2023-07-24T06:16:49;22.70;99.90
4962;DHT22;2496;52.468;13.342;2023-07-24T06:19:17;22.80;99.90
4962;DHT22;2496;52.468;13.342;2023-07-24T06:21:44;22.90;99.90
4962;DHT22;2496;52.468;13.342;2023-07-24T06:24:11;23.00;99.90
4962;DHT22;2496;52.468;13.342;2023-07-24T06:26:39;23.00;99.90
4962;DHT22;2496;52.468;13.342;2023-07-24T06:29:06;23.00;99.90
4962;DHT22;2496;52.468;13.342;2023-07-24T06:31:33;23.00;99.90
4962;DHT22;2496;52.468;13.342;2023-07-24T06:33:58;23.00;99.90
4962;DHT22;2496;52.468;13.342;2023-07-24T06:36:27;23.10;99.90
4962;DHT22;2496;52.468;13.342;2023-07-24T06:38:54;23.10;99.90
4962;DHT22;2496;52.468;13.342;2023-07-24T06:41:21;23.10;99.90
4962;DHT22;2496;52.468;13.342;2023-07-24T06:43:48;23.10;99.90
4962;DHT22;2496;52.468;13.342;2023-07-24T06:46:15;23.20;99.90
4962;DHT22;2496;52.468;13.342;2023-07-24T06:48:42;23.30;99.90
4962;DHT22;2496;52.468;13.342;2023-07-24T06:51:09;23.30;99.90
4962;DHT22;2496;52.468;13.342;2023-07-24T06:53:38;23.40;99.90
4962;DHT22;2496;52.468;13.342;2023-07-24T06:56:05;23.50;99.90
4962;DHT22;2496;52.468;13.342;2023-07-24T06:58:32;23.70;99.90
4962;DHT22;2496;52.468;13.342;2023-07-24T07:00:59;23.80;99.90
4962;DHT22;2496;52.468;13.342;2023-07-24T07:03:26;23.70;99.90
4962;DHT22;2496;52.468;13.342;2023-07-24T07:05:58;23.70;99.90
4962;DHT22;2496;52.468;13.342;2023-07-24T07:08:25;23.70;99.90
4962;DHT22;2496;52.468;13.342;2023-07-24T07:10:56;23.70;99.90
4962;DHT22;2496;52.468;13.342;2023-07-24T07:13:23;23.80;99.90
4962;DHT22;2496;52.468;13.342;2023-07-24T07:15:50;23.90;99.90
4962;DHT22;2496;52.468;13.342;2023-07-24T07:18:17;23.90;99.90
4962;DHT22;2496;52.468;13.342;2023-07-24T07:20:45;24.00;99.90
4962;DHT22;2496;52.468;13.342;2023-07-24T07:23:12;24.10;99.90
4962;DHT22;2496;52.468;13.342;2023-07-24T07:25:39;24.10;99.90
4962;DHT22;2496;52.468;13.342;2023-07-24T07:28:07;24.20;99.90
4962;DHT22;2496;52.468;13.342;2023-07-24T07:30:35;24.30;99.90
4962;DHT22;2496;52.468;13.342;2023-07-24T07:33:02;24.40;99.90
4962;DHT22;2496;52.468;13.342;2023-07-24T07:35:30;24.40;99.90
4962;DHT22;2496;52.468;13.342;2023-07-24T07:37:58;24.50;99.90
4962;DHT22;2496;52.468;13.342;2023-07-24T07:40:25;24.50;99.90
4962;DHT22;2496;52.468;13.342;2023-07-24T07:42:52;24.50;99.90
4962;DHT22;2496;52.468;13.342;2023-07-24T07:45:21;24.60;99.90
4962;DHT22;2496;52.468;13.342;2023-07-24T07:47:48;24.60;99.90
4962;DHT22;2496;52.468;13.342;2023-07-24T07:50:15;24.70;99.90
4962;DHT22;2496;52.468;13.342;2023-07-24T07:52:42;24.70;99.90
4962;DHT22;2496;52.468;13.342;2023-07-24T07:55:09;24.80;99.90
4962;DHT22;2496;52.468;13.342;2023-07-24T07:57:37;24.90;99.90
4962;DHT22;2496;52.468;13.342;2023-07-24T08:00:05;25.00;99.90
4962;DHT22;2496;52.468;13.342;2023-07-24T08:02:34;25.10;99.90
4962;DHT22;2496;52.468;13.342;2023-07-24T08:05:01;25.20;99.90
4962;DHT22;2496;52.468;13.342;2023-07-24T08:07:28;25.30;99.90
4962;DHT22;2496;52.468;13.342;2023-07-24T08:09:55;25.40;99.90
4962;DHT22;2496;52.468;13.342;2023-07-24T08:12:22;25.50;99.90
4962;DHT22;2496;52.468;13.342;2023-07-24T08:14:49;25.60;99.90
4962;DHT22;2496;52.468;13.342;2023-07-24T08:17:15;25.70;99.60
4962;DHT22;2496;52.468;13.342;2023-07-24T08:19:44;25.70;99.50
4962;DHT22;2496;52.468;13.342;2023-07-24T08:22:11;25.80;99.40
4962;DHT22;2496;52.468;13.342;2023-07-24T08:24:38;26.00;98.70
4962;DHT22;2496;52.468;13.342;2023-07-24T08:27:06;26.00;98.80
4962;DHT22;2496;52.468;13.342;2023-07-24T08:29:33;26.10;98.80
4962;DHT22;2496;52.468;13.342;2023-07-24T08:32:01;26.00;98.70
4962;DHT22;2496;52.468;13.342;2023-07-24T08:34:28;25.90;98.70
4962;DHT22;2496;52.468;13.342;2023-07-24T08:36:57;25.80;99.00
4962;DHT22;2496;52.468;13.342;2023-07-24T08:39:24;25.60;99.10
4962;DHT22;2496;52.468;13.342;2023-07-24T08:41:51;25.50;99.20
4962;DHT22;2496;52.468;13.342;2023-07-24T08:44:18;25.30;99.70
4962;DHT22;2496;52.468;13.342;2023-07-24T08:46:48;25.20;99.50
4962;DHT22;2496;52.468;13.342;2023-07-24T08:49:16;25.10;99.70
4962;DHT22;2496;52.468;13.342;2023-07-24T08:51:44;25.20;99.90
4962;DHT22;2496;52.468;13.342;2023-07-24T08:54:12;25.30;99.90
4962;DHT22;2496;52.468;13.342;2023-07-24T08:56:40;25.60;99.60
4962;DHT22;2496;52.468;13.342;2023-07-24T08:59:07;25.60;99.20
4962;DHT22;2496;52.468;13.342;2023-07-24T09:01:34;25.60;99.50
4962;DHT22;2496;52.468;13.342;2023-07-24T09:04:01;25.60;99.50
4962;DHT22;2496;52.468;13.342;2023-07-24T09:06:28;25.80;99.60
4962;DHT22;2496;52.468;13.342;2023-07-24T09:08:55;26.10;99.30
4962;DHT22;2496;52.468;13.342;2023-07-24T09:11:23;26.50;98.70
4962;DHT22;2496;52.468;13.342;2023-07-24T09:13:50;26.70;98.20
4962;DHT22;2496;52.468;13.342;2023-07-24T09:16:21;26.60;98.20
4962;DHT22;2496;52.468;13.342;2023-07-24T09:18:49;26.60;98.60
4962;DHT22;2496;52.468;13.342;2023-07-24T09:21:27;26.80;98.20
4962;DHT22;2496;52.468;13.342;2023-07-24T09:23:54;27.10;97.60
4962;DHT22;2496;52.468;13.342;2023-07-24T09:26:22;27.30;97.30
4962;DHT22;2496;52.468;13.342;2023-07-24T09:28:52;27.40;97.10
4962;DHT22;2496;52.468;13.342;2023-07-24T09:31:19;27.30;96.90
4962;DHT22;2496;52.468;13.342;2023-07-24T09:33:46;27.10;96.70
4962;DHT22;2496;52.468;13.342;2023-07-24T09:36:13;26.90;97.20
4962;DHT22;2496;52.468;13.342;2023-07-24T09:38:41;26.70;97.40
4962;DHT22;2496;52.468;13.342;2023-07-24T09:41:08;26.60;97.50
4962;DHT22;2496;52.468;13.342;2023-07-24T09:43:36;26.50;97.90
4962;DHT22;2496;52.468;13.342;2023-07-24T09:46:04;26.40;97.70
4962;DHT22;2496;52.468;13.342;2023-07-24T09:48:32;26.30;97.80
4962;DHT22;2496;52.468;13.342;2023-07-24T09:51:00;26.20;97.90
4962;DHT22;2496;52.468;13.342;2023-07-24T09:53:32;26.20;97.70
4962;DHT22;2496;52.468;13.342;2023-07-24T09:56:01;26.30;97.80
4962;DHT22;2496;52.468;13.342;2023-07-24T09:58:29;26.40;97.70
4962;DHT22;2496;52.468;13.342;2023-07-24T10:01:00;26.50;97.10
4962;DHT22;2496;52.468;13.342;2023-07-24T11:07:49;26.60;96.80
4962;DHT22;2496;52.468;13.342;2023-07-24T11:10:18;27.30;93.50
4962;DHT22;2496;52.468;13.342;2023-07-24T11:12:45;27.30;93.10
4962;DHT22;2496;52.468;13.342;2023-07-24T11:15:14;27.30;92.90
4962;DHT22;2496;52.468;13.342;2023-07-24T11:17:41;27.30;92.80
4962;DHT22;2496;52.468;13.342;2023-07-24T11:20:11;27.30;92.40
4962;DHT22;2496;52.468;13.342;2023-07-24T11:22:39;27.30;92.70
4962;DHT22;2496;52.468;13.342;2023-07-24T11:25:07;27.30;92.90
4962;DHT22;2496;52.468;13.342;2023-07-24T11:27:39;27.30;92.60
4962;DHT22;2496;52.468;13.342;2023-07-24T11:30:10;27.20;92.90
4962;DHT22;2496;52.468;13.342;2023-07-24T11:32:38;27.10;92.70
4962;DHT22;2496;52.468;13.342;2023-07-24T11:35:07;27.00;92.80
4962;DHT22;2496;52.468;13.342;2023-07-24T11:37:34;27.00;92.90
4962;DHT22;2496;52.468;13.342;2023-07-24T11:40:03;27.00;93.10
4962;DHT22;2496;52.468;13.342;2023-07-24T11:42:39;27.00;92.90
4962;DHT22;2496;52.468;13.342;2023-07-24T11:45:07;27.10;93.30
4962;DHT22;2496;52.468;13.342;2023-07-24T11:47:42;27.20;92.60
4962;DHT22;2496;52.468;13.342;2023-07-24T11:50:09;27.30;92.60
4962;DHT22;2496;52.468;13.342;2023-07-24T11:52:40;27.20;92.10
4962;DHT22;2496;52.468;13.342;2023-07-24T11:55:09;27.20;92.00
4962;DHT22;2496;52.468;13.342;2023-07-24T11:57:36;27.10;91.90
4962;DHT22;2496;52.468;13.342;2023-07-24T12:00:16;27.10;91.90
4962;DHT22;2496;52.468;13.342;2023-07-24T12:02:44;27.10;92.10
4962;DHT22;2496;52.468;13.342;2023-07-24T12:05:10;27.10;92.40
4962;DHT22;2496;52.468;13.342;2023-07-24T12:07:37;27.10;92.30
4962;DHT22;2496;52.468;13.342;2023-07-24T12:10:06;27.10;91.80
4962;DHT22;2496;52.468;13.342;2023-07-24T12:12:38;27.00;91.70
4962;DHT22;2496;52.468;13.342;2023-07-24T12:15:07;26.90;91.90
4962;DHT22;2496;52.468;13.342;2023-07-24T12:17:35;26.80;92.10
4962;DHT22;2496;52.468;13.342;2023-07-24T12:20:02;26.60;92.10
4962;DHT22;2496;52.468;13.342;2023-07-24T12:22:30;26.50;92.30
4962;DHT22;2496;52.468;13.342;2023-07-24T12:24:57;26.40;92.80
4962;DHT22;2496;52.468;13.342;2023-07-24T12:27:24;26.30;94.10
4962;DHT22;2496;52.468;13.342;2023-07-24T12:29:51;26.20;94.90
4962;DHT22;2496;52.468;13.342;2023-07-24T12:32:20;26.00;95.60
4962;DHT22;2496;52.468;13.342;2023-07-24T12:34:49;25.80;95.90
4962;DHT22;2496;52.468;13.342;2023-07-24T12:37:17;25.70;96.60
4962;DHT22;2496;52.468;13.342;2023-07-24T12:39:44;25.50;96.70
4962;DHT22;2496;52.468;13.342;2023-07-24T12:42:11;25.30;98.70
4962;DHT22;2496;52.468;13.342;2023-07-24T12:44:38;24.90;99.50
4962;DHT22;2496;52.468;13.342;2023-07-24T12:47:05;24.80;99.90
4962;DHT22;2496;52.468;13.342;2023-07-24T12:49:34;24.70;99.90
4962;DHT22;2496;52.468;13.342;2023-07-24T12:52:01;24.80;99.90
4962;DHT22;2496;52.468;13.342;2023-07-24T12:54:28;24.70;99.90
4962;DHT22;2496;52.468;13.342;2023-07-24T12:56:55;24.70;99.90
4962;DHT22;2496;52.468;13.342;2023-07-24T12:59:22;24.70;99.90
4962;DHT22;2496;52.468;13.342;2023-07-24T13:01:49;24.60;99.90
4962;DHT22;2496;52.468;13.342;2023-07-24T13:04:16;24.50;99.90
4962;DHT22;2496;52.468;13.342;2023-07-24T13:06:44;24.40;99.90
4962;DHT22;2496;52.468;13.342;2023-07-24T13:09:11;24.30;99.90
4962;DHT22;2496;52.468;13.342;2023-07-24T13:11:38;24.20;99.90
4962;DHT22;2496;52.468;13.342;2023-07-24T13:14:06;24.20;99.90
4962;DHT22;2496;52.468;13.342;2023-07-24T13:16:33;24.10;99.90
4962;DHT22;2496;52.468;13.342;2023-07-24T13:19:01;24.10;99.90
4962;DHT22;2496;52.468;13.342;2023-07-24T13:21:29;24.20;99.90
4962;DHT22;2496;52.468;13.342;2023-07-24T13:23:57;24.30;99.90
4962;DHT22;2496;52.468;13.342;2023-07-24T13:26:24;24.40;99.90
4962;DHT22;2496;52.468;13.342;2023-07-24T13:28:51;24.50;99.90
4962;DHT22;2496;52.468;13.342;2023-07-24T13:31:19;24.50;99.90
4962;DHT22;2496;52.468;13.342;2023-07-24T13:33:47;24.70;99.90
4962;DHT22;2496;52.468;13.342;2023-07-24T13:36:14;24.70;99.90
4962;DHT22;2496;52.468;13.342;2023-07-24T13:38:41;24.90;99.90
4962;DHT22;2496;52.468;13.342;2023-07-24T13:41:10;25.00;99.90
4962;DHT22;2496;52.468;13.342;2023-07-24T13:43:36;25.20;99.90
4962;DHT22;2496;52.468;13.342;2023-07-24T13:46:03;25.30;99.90
4962;DHT22;2496;52.468;13.342;2023-07-24T13:48:33;25.50;99.90
4962;DHT22;2496;52.468;13.342;2023-07-24T13:50:59;25.60;99.90
4962;DHT22;2496;52.468;13.342;2023-07-24T13:53:26;25.70;99.90
4962;DHT22;2496;52.468;13.342;2023-07-24T13:55:53;25.70;99.90
4962;DHT22;2496;52.468;13.342;2023-07-24T13:58:22;25.70;99.90
4962;DHT22;2496;52.468;13.342;2023-07-24T14:00:49;25.70;99.90
4962;DHT22;2496;52.468;13.342;2023-07-24T14:03:16;25.60;99.90
4962;DHT22;2496;52.468;13.342;2023-07-24T14:05:43;25.60;99.90
4962;DHT22;2496;52.468;13.342;2023-07-24T14:08:10;25.30;99.90
4962;DHT22;2496;52.468;13.342;2023-07-24T14:10:37;25.10;99.90
4962;DHT22;2496;52.468;13.342;2023-07-24T14:13:04;24.90;99.90
4962;DHT22;2496;52.468;13.342;2023-07-24T14:15:32;24.70;99.90
4962;DHT22;2496;52.468;13.342;2023-07-24T14:17:59;24.60;99.90
4962;DHT22;2496;52.468;13.342;2023-07-24T14:20:26;24.60;99.90
4962;DHT22;2496;52.468;13.342;2023-07-24T14:22:53;24.60;99.90
4962;DHT22;2496;52.468;13.342;2023-07-24T14:25:22;24.70;99.90
4962;DHT22;2496;52.468;13.342;2023-07-24T14:27:49;24.70;99.90
4962;DHT22;2496;52.468;13.342;2023-07-24T14:30:17;24.80;99.90
4962;DHT22;2496;52.468;13.342;2023-07-24T14:32:45;24.80;99.90
4962;DHT22;2496;52.468;13.342;2023-07-24T14:35:12;24.80;99.90
4962;DHT22;2496;52.468;13.342;2023-07-24T14:37:39;24.80;99.90
4962;DHT22;2496;52.468;13.342;2023-07-24T14:40:09;24.80;99.90
4962;DHT22;2496;52.468;13.342;2023-07-24T14:42:39;24.80;99.90
4962;DHT22;2496;52.468;13.342;2023-07-24T14:45:07;24.90;99.90
4962;DHT22;2496;52.468;13.342;2023-07-24T14:47:34;24.80;99.90
4962;DHT22;2496;52.468;13.342;2023-07-24T14:50:03;24.80;99.90
4962;DHT22;2496;52.468;13.342;2023-07-24T14:52:30;24.80;99.90
4962;DHT22;2496;52.468;13.342;2023-07-24T14:54:57;24.70;99.90
4962;DHT22;2496;52.468;13.342;2023-07-24T14:57:24;24.60;99.90
4962;DHT22;2496;52.468;13.342;2023-07-24T14:59:51;24.50;99.90
4962;DHT22;2496;52.468;13.342;2023-07-24T15:02:18;24.50;99.90
4962;DHT22;2496;52.468;13.342;2023-07-24T15:04:45;24.40;99.90
4962;DHT22;2496;52.468;13.342;2023-07-24T15:07:14;24.40;99.90
4962;DHT22;2496;52.468;13.342;2023-07-24T15:09:42;24.40;99.90
4962;DHT22;2496;52.468;13.342;2023-07-24T15:12:09;24.50;99.90
4962;DHT22;2496;52.468;13.342;2023-07-24T15:14:36;24.50;99.90
4962;DHT22;2496;52.468;13.342;2023-07-24T15:17:03;24.50;99.90
4962;DHT22;2496;52.468;13.342;2023-07-24T15:19:30;24.50;99.90
4962;DHT22;2496;52.468;13.342;2023-07-24T15:21:57;24.60;99.90
4962;DHT22;2496;52.468;13.342;2023-07-24T15:24:25;24.60;99.90
4962;DHT22;2496;52.468;13.342;2023-07-24T15:26:52;24.70;99.90
4962;DHT22;2496;52.468;13.342;2023-07-24T15:29:19;24.70;99.90
4962;DHT22;2496;52.468;13.342;2023-07-24T15:31:46;24.80;99.90
4962;DHT22;2496;52.468;13.342;2023-07-24T15:34:13;24.90;99.90
4962;DHT22;2496;52.468;13.342;2023-07-24T15:36:40;25.00;99.90
4962;DHT22;2496;52.468;13.342;2023-07-24T15:39:07;25.00;99.90
4962;DHT22;2496;52.468;13.342;2023-07-24T15:41:35;25.10;99.90
4962;DHT22;2496;52.468;13.342;2023-07-24T15:44:02;25.30;99.90
4962;DHT22;2496;52.468;13.342;2023-07-24T15:46:29;25.30;99.90
4962;DHT22;2496;52.468;13.342;2023-07-24T15:48:57;25.40;99.90
4962;DHT22;2496;52.468;13.342;2023-07-24T15:51:25;25.50;99.90
4962;DHT22;2496;52.468;13.342;2023-07-24T15:53:52;25.50;99.90
4962;DHT22;2496;52.468;13.342;2023-07-24T15:56:19;25.60;99.70
4962;DHT22;2496;52.468;13.342;2023-07-24T15:58:49;25.50;99.60
4962;DHT22;2496;52.468;13.342;2023-07-24T16:01:17;25.50;99.70
4962;DHT22;2496;52.468;13.342;2023-07-24T16:03:44;25.50;99.40
4962;DHT22;2496;52.468;13.342;2023-07-24T16:06:12;25.40;99.20
4962;DHT22;2496;52.468;13.342;2023-07-24T16:08:40;25.30;99.20
4962;DHT22;2496;52.468;13.342;2023-07-24T16:11:08;25.30;99.20
4962;DHT22;2496;52.468;13.342;2023-07-24T16:13:36;25.30;98.90
4962;DHT22;2496;52.468;13.342;2023-07-24T16:16:05;25.30;98.80
4962;DHT22;2496;52.468;13.342;2023-07-24T16:18:32;25.30;98.90
4962;DHT22;2496;52.468;13.342;2023-07-24T16:20:59;25.40;98.90
4962;DHT22;2496;52.468;13.342;2023-07-24T16:23:26;25.30;98.80
4962;DHT22;2496;52.468;13.342;2023-07-24T16:25:53;25.40;98.70
4962;DHT22;2496;52.468;13.342;2023-07-24T16:28:20;25.40;98.60
4962;DHT22;2496;52.468;13.342;2023-07-24T16:30:47;25.50;98.50
4962;DHT22;2496;52.468;13.342;2023-07-24T16:33:16;25.50;98.40
4962;DHT22;2496;52.468;13.342;2023-07-24T16:35:43;25.50;98.40
4962;DHT22;2496;52.468;13.342;2023-07-24T16:38:10;25.50;98.40
4962;DHT22;2496;52.468;13.342;2023-07-24T16:40:40;25.50;98.40
4962;DHT22;2496;52.468;13.342;2023-07-24T16:43:07;25.40;98.10
4962;DHT22;2496;52.468;13.342;2023-07-24T16:45:34;25.30;98.20
4962;DHT22;2496;52.468;13.342;2023-07-24T16:48:01;25.30;98.40
4962;DHT22;2496;52.468;13.342;2023-07-24T16:50:30;25.20;98.40
4962;DHT22;2496;52.468;13.342;2023-07-24T16:52:57;25.20;98.50